Time;durP1;ratioP1;P1;durP2;ratioP2;P2;SDS_P1;SDS_P2;PMS_P1;PMS_P2;Temp;Humidity;BMP_temperature;BMP_pressure;BME280_temperature;BME280_humidity;BME280_pressure;Samples;Min_cycle;Max_cycle;Signal;HPM_P1;HPM_P2
2023/12/31 00:02:12;;;;;;;500.77;462.57;;;7.80;99.90;;;;;;5042193;28;20339;-75
2023/12/31 00:04:39;;;;;;;722.10;653.95;;;7.90;99.90;;;;;;5050655;28;20371;-75
2023/12/31 00:07:06;;;;;;;620.60;568.43;;;7.90;99.90;;;;;;5032444;28;20454;-75
2023/12/31 00:09:32;;;;;;;574.77;527.77;;;7.90;99.90;;;;;;5050865;28;20073;-75
2023/12/31 00:11:58;;;;;;;559.30;515.20;;;7.90;99.90;;;;;;5028243;28;20322;-74
2023/12/31 00:14:25;;;;;;;601.23;552.10;;;7.90;99.90;;;;;;5030445;28;20041;-75
2023/12/31 00:16:51;;;;;;;511.40;472.47;;;7.90;99.90;;;;;;5029964;28;20438;-74
2023/12/31 00:19:17;;;;;;;560.10;514.77;;;7.90;99.90;;;;;;5036797;28;20282;-75
2023/12/31 00:21:43;;;;;;;612.00;562.90;;;7.90;99.90;;;;;;5028662;28;20299;-75
2023/12/31 00:24:10;;;;;;;541.90;499.70;;;7.80;99.90;;;;;;5037165;28;20345;-76
2023/12/31 00:26:36;;;;;;;687.53;628.07;;;7.80;99.90;;;;;;5031934;28;20468;-76
2023/12/31 00:29:03;;;;;;;558.87;514.00;;;7.70;99.90;;;;;;5027208;28;20344;-75
2023/12/31 00:31:28;;;;;;;483.37;446.80;;;7.70;99.90;;;;;;5033097;28;20284;-75
2023/12/31 00:33:57;;;;;;;615.47;564.60;;;7.70;99.90;;;;;;5048525;28;20376;-76
2023/12/31 00:36:25;;;;;;;507.55;468.80;;;7.60;99.90;;;;;;5050878;28;20040;-76
2023/12/31 00:38:53;;;;;;;481.90;445.97;;;7.60;99.90;;;;;;5024582;28;20041;-76
2023/12/31 00:41:22;;;;;;;517.90;478.23;;;7.60;99.90;;;;;;5028108;28;20280;-75
2023/12/31 00:43:51;;;;;;;476.13;440.10;;;7.60;99.90;;;;;;5030845;28;20310;-75
2023/12/31 00:46:18;;;;;;;427.45;396.25;;;7.60;99.90;;;;;;5030057;28;20272;-75
2023/12/31 00:48:44;;;;;;;553.25;504.95;;;7.50;99.90;;;;;;5045743;28;20444;-75
2023/12/31 00:51:13;;;;;;;466.43;430.97;;;7.50;99.90;;;;;;5031461;28;20051;-75
2023/12/31 00:53:39;;;;;;;464.83;429.52;;;7.50;99.90;;;;;;5025204;28;20037;-75
2023/12/31 00:56:09;;;;;;;499.63;458.87;;;7.50;99.90;;;;;;5036894;28;20044;-75
2023/12/31 00:58:36;;;;;;;401.87;371.53;;;7.50;99.90;;;;;;5047334;28;20291;-75
2023/12/31 01:01:03;;;;;;;528.35;485.20;;;7.50;99.90;;;;;;5049753;28;20282;-76
2023/12/31 01:03:33;;;;;;;369.67;342.60;;;7.50;99.90;;;;;;5042749;28;20041;-75
2023/12/31 01:06:07;;;;;;;620.70;570.63;;;7.50;99.90;;;;;;5060381;28;20404;-75
2023/12/31 01:08:37;;;;;;;557.93;512.10;;;7.50;99.90;;;;;;5028536;28;20341;-76
2023/12/31 01:11:04;;;;;;;536.60;491.90;;;7.60;99.90;;;;;;5046000;28;20284;-74
2023/12/31 01:13:31;;;;;;;607.78;559.13;;;7.60;99.90;;;;;;5030783;28;20706;-75
2023/12/31 01:15:57;;;;;;;428.85;398.20;;;7.60;99.90;;;;;;5030380;28;20101;-75
2023/12/31 01:18:26;;;;;;;539.47;497.40;;;7.60;99.90;;;;;;5047877;28;20049;-75
2023/12/31 01:20:57;;;;;;;520.72;480.38;;;7.60;99.90;;;;;;5051059;28;20340;-75
2023/12/31 01:23:30;;;;;;;580.97;535.50;;;7.60;99.90;;;;;;5047247;28;20097;-75
2023/12/31 01:25:59;;;;;;;440.07;408.07;;;7.60;99.90;;;;;;5030652;28;20037;-75
2023/12/31 01:28:27;;;;;;;487.10;449.33;;;7.60;99.90;;;;;;5047352;28;20298;-76
2023/12/31 01:30:56;;;;;;;480.00;441.15;;;7.60;99.90;;;;;;5046469;28;20287;-75
2023/12/31 01:33:23;;;;;;;429.87;398.97;;;7.60;99.90;;;;;;5047622;28;20063;-75
2023/12/31 01:35:51;;;;;;;528.83;485.97;;;7.50;99.90;;;;;;5041139;28;20286;-74
2023/12/31 01:38:18;;;;;;;499.92;461.25;;;7.50;99.90;;;;;;5046650;28;20302;-74
2023/12/31 01:40:54;;;;;;;438.97;407.93;;;7.50;99.90;;;;;;5037442;28;20123;-74
2023/12/31 01:43:23;;;;;;;534.13;491.85;;;7.50;99.90;;;;;;5024408;28;20098;-74
2023/12/31 01:45:51;;;;;;;447.10;413.73;;;7.50;99.90;;;;;;5030774;28;20603;-74
2023/12/31 01:48:19;;;;;;;546.30;501.20;;;7.40;99.90;;;;;;5046728;28;20294;-74
2023/12/31 01:50:46;;;;;;;452.90;418.17;;;7.40;99.90;;;;;;5031835;28;20360;-74
2023/12/31 01:53:13;;;;;;;512.10;474.13;;;7.40;99.90;;;;;;5030506;28;20699;-74
2023/12/31 01:55:42;;;;;;;528.80;489.20;;;7.40;99.90;;;;;;5033407;28;20413;-75
2023/12/31 01:58:10;;;;;;;622.22;564.75;;;7.40;99.90;;;;;;5046892;28;20668;-75
2023/12/31 02:00:36;;;;;;;535.15;494.20;;;7.40;99.90;;;;;;5024661;28;20159;-75
2023/12/31 02:03:04;;;;;;;489.30;454.25;;;7.30;99.90;;;;;;5046204;28;20045;-75
2023/12/31 02:05:35;;;;;;;621.88;573.17;;;7.30;99.90;;;;;;5028191;28;20238;-75
2023/12/31 02:08:01;;;;;;;397.65;370.33;;;7.30;99.90;;;;;;5029969;28;20036;-75
2023/12/31 02:10:29;;;;;;;496.33;458.63;;;7.30;99.90;;;;;;5049273;28;20401;-74
2023/12/31 02:12:58;;;;;;;575.30;530.63;;;7.20;99.90;;;;;;5030467;28;20040;-75
2023/12/31 02:15:33;;;;;;;636.30;583.40;;;7.20;99.90;;;;;;5032456;28;20043;-74
2023/12/31 02:18:00;;;;;;;497.48;460.50;;;7.10;99.90;;;;;;5031519;28;20090;-74
2023/12/31 02:20:30;;;;;;;537.38;495.63;;;7.10;99.90;;;;;;5048279;28;20511;-76
2023/12/31 02:22:58;;;;;;;416.70;387.60;;;7.10;99.90;;;;;;5059147;28;20504;-75
2023/12/31 02:25:27;;;;;;;540.28;498.20;;;7.00;99.90;;;;;;5038903;28;20125;-74
2023/12/31 02:27:56;;;;;;;571.78;525.72;;;7.00;99.90;;;;;;5034004;28;20044;-75
2023/12/31 02:30:24;;;;;;;549.65;506.30;;;7.00;99.90;;;;;;5032612;28;20168;-74
2023/12/31 02:32:51;;;;;;;552.70;508.85;;;7.00;99.90;;;;;;5034435;28;20041;-75
2023/12/31 02:35:19;;;;;;;575.88;530.28;;;7.00;99.90;;;;;;5049500;28;20048;-74
2023/12/31 02:37:50;;;;;;;515.20;475.50;;;7.00;99.90;;;;;;5054197;28;20585;-74
2023/12/31 02:40:18;;;;;;;362.70;338.60;;;7.10;99.90;;;;;;5049873;28;20242;-75
2023/12/31 02:42:45;;;;;;;507.52;467.50;;;7.10;99.90;;;;;;5032144;28;20612;-75
2023/12/31 02:45:14;;;;;;;457.70;423.67;;;7.10;99.90;;;;;;5047957;28;21315;-75
2023/12/31 02:47:41;;;;;;;460.33;426.35;;;7.10;99.90;;;;;;5050373;28;20053;-74
2023/12/31 02:50:10;;;;;;;548.58;505.92;;;7.10;99.90;;;;;;5048535;28;20040;-75
2023/12/31 02:52:37;;;;;;;452.43;419.90;;;7.10;99.90;;;;;;5050052;28;20045;-75
2023/12/31 02:55:05;;;;;;;463.43;429.53;;;7.10;99.90;;;;;;5043401;28;20047;-75
2023/12/31 02:57:31;;;;;;;499.40;461.85;;;7.10;99.90;;;;;;5037617;28;20691;-75
2023/12/31 02:59:58;;;;;;;469.37;435.70;;;7.10;99.90;;;;;;5023696;28;20061;-75
2023/12/31 03:02:26;;;;;;;388.20;361.38;;;7.10;99.90;;;;;;5049011;28;20044;-75
2023/12/31 03:04:53;;;;;;;482.63;444.80;;;7.10;99.90;;;;;;5049596;28;20045;-75
2023/12/31 03:07:21;;;;;;;444.92;411.10;;;7.00;99.90;;;;;;5031786;28;20474;-75
2023/12/31 03:09:48;;;;;;;441.13;409.45;;;7.00;99.90;;;;;;5033312;28;20489;-74
2023/12/31 03:12:17;;;;;;;509.77;471.13;;;7.10;99.90;;;;;;5048668;28;20545;-75
2023/12/31 03:14:47;;;;;;;424.13;392.98;;;7.00;99.90;;;;;;5048451;28;20045;-74
2023/12/31 03:17:16;;;;;;;460.27;427.02;;;7.00;99.90;;;;;;5050399;28;20106;-75
2023/12/31 03:19:42;;;;;;;522.55;480.70;;;7.00;99.90;;;;;;5050243;28;20048;-75
2023/12/31 03:22:09;;;;;;;492.75;454.77;;;7.00;99.90;;;;;;5048407;28;20176;-75
2023/12/31 03:24:36;;;;;;;488.42;451.25;;;7.10;99.90;;;;;;5032940;28;20037;-75
2023/12/31 03:27:02;;;;;;;510.13;471.52;;;7.10;99.90;;;;;;5048398;28;20033;-75
2023/12/31 03:29:30;;;;;;;496.88;460.50;;;7.10;99.90;;;;;;5033292;28;20128;-75
2023/12/31 03:31:59;;;;;;;429.75;399.63;;;7.10;99.90;;;;;;5048912;28;20131;-75
2023/12/31 03:34:25;;;;;;;538.65;495.70;;;7.10;99.90;;;;;;5032554;28;20045;-75
2023/12/31 03:36:52;;;;;;;533.97;491.30;;;7.20;99.90;;;;;;5049287;28;20040;-75
2023/12/31 03:39:19;;;;;;;593.60;544.58;;;7.20;99.90;;;;;;5024899;28;20148;-75
2023/12/31 03:41:46;;;;;;;485.83;449.67;;;7.20;99.90;;;;;;5045936;28;20049;-75
2023/12/31 03:44:15;;;;;;;504.88;466.63;;;7.20;99.90;;;;;;5050430;28;20037;-74
2023/12/31 03:46:44;;;;;;;666.75;610.08;;;7.20;99.90;;;;;;5024005;28;20033;-74
2023/12/31 03:49:11;;;;;;;502.50;466.15;;;7.30;99.90;;;;;;5049877;28;20128;-74
2023/12/31 03:51:37;;;;;;;667.95;612.25;;;7.30;99.90;;;;;;5026678;28;20072;-75
2023/12/31 03:54:05;;;;;;;465.75;430.88;;;7.30;99.90;;;;;;5030024;28;20053;-75
2023/12/31 03:56:35;;;;;;;462.05;427.80;;;7.30;99.90;;;;;;5047809;28;20505;-75
2023/12/31 03:59:02;;;;;;;627.05;573.67;;;7.30;99.90;;;;;;5045991;28;20044;-75
2023/12/31 04:01:28;;;;;;;526.63;486.00;;;7.30;99.90;;;;;;5029850;28;20401;-75
2023/12/31 04:03:54;;;;;;;503.83;465.90;;;7.30;99.90;;;;;;5032599;28;20290;-75
2023/12/31 04:06:22;;;;;;;609.95;559.00;;;7.40;99.90;;;;;;5046782;28;20112;-75
2023/12/31 04:08:52;;;;;;;506.88;469.83;;;7.40;99.90;;;;;;5033849;28;20116;-75
2023/12/31 04:11:25;;;;;;;555.65;513.58;;;7.40;99.90;;;;;;5050275;28;20044;-75
2023/12/31 04:13:54;;;;;;;649.67;595.10;;;7.40;99.90;;;;;;5049262;28;20531;-74
2023/12/31 04:16:20;;;;;;;646.05;591.70;;;7.40;99.90;;;;;;5047603;28;20279;-75
2023/12/31 04:18:48;;;;;;;564.60;519.72;;;7.40;99.90;;;;;;5051739;28;20047;-75
2023/12/31 04:21:16;;;;;;;518.55;478.05;;;7.40;99.90;;;;;;5053576;28;20057;-75
2023/12/31 04:23:44;;;;;;;653.55;598.67;;;7.40;99.90;;;;;;5032087;28;20079;-75
2023/12/31 04:26:10;;;;;;;586.08;537.85;;;7.40;99.90;;;;;;5033081;28;20028;-74
2023/12/31 04:28:38;;;;;;;570.83;526.95;;;7.30;99.90;;;;;;5030722;28;20549;-74
2023/12/31 04:31:06;;;;;;;505.35;467.73;;;7.30;99.90;;;;;;5049543;28;20075;-75
2023/12/31 04:33:33;;;;;;;608.45;558.95;;;7.30;99.90;;;;;;5031023;28;20095;-75
2023/12/31 04:36:04;;;;;;;626.90;573.10;;;7.40;99.90;;;;;;5052074;28;20095;-76
2023/12/31 04:38:33;;;;;;;614.10;563.90;;;7.40;99.90;;;;;;5047767;28;20053;-75
2023/12/31 04:41:00;;;;;;;595.92;549.80;;;7.40;99.90;;;;;;5046611;28;20041;-75
2023/12/31 04:43:25;;;;;;;741.67;671.75;;;7.40;99.90;;;;;;5030181;28;20045;-75
2023/12/31 04:45:56;;;;;;;546.97;505.58;;;7.40;99.90;;;;;;5050213;28;20079;-75
2023/12/31 04:48:25;;;;;;;619.28;568.80;;;7.40;99.90;;;;;;5042528;28;20886;-75
2023/12/31 04:50:52;;;;;;;512.55;475.08;;;7.40;99.90;;;;;;5047416;28;20585;-75
2023/12/31 04:53:21;;;;;;;597.15;549.63;;;7.40;99.90;;;;;;5049766;28;20231;-75
2023/12/31 04:55:48;;;;;;;612.95;562.45;;;7.40;99.90;;;;;;5031290;28;20572;-75
2023/12/31 04:58:17;;;;;;;599.72;550.63;;;7.40;99.90;;;;;;5030484;28;20037;-75
2023/12/31 05:00:46;;;;;;;673.92;614.33;;;7.40;99.90;;;;;;5045456;28;20497;-75
2023/12/31 05:03:16;;;;;;;549.38;505.20;;;7.40;99.90;;;;;;5021089;28;20036;-75
2023/12/31 05:05:45;;;;;;;590.90;542.33;;;7.40;99.90;;;;;;5032029;28;20041;-74
2023/12/31 05:08:13;;;;;;;617.00;566.25;;;7.40;99.90;;;;;;5048162;28;20707;-75
2023/12/31 05:10:39;;;;;;;648.03;593.23;;;7.50;99.90;;;;;;5047006;28;20048;-75
2023/12/31 05:13:05;;;;;;;606.97;557.03;;;7.40;99.90;;;;;;5047462;28;20299;-75
2023/12/31 05:15:35;;;;;;;539.92;496.88;;;7.50;99.90;;;;;;5031403;28;20041;-76
2023/12/31 05:18:02;;;;;;;535.10;492.13;;;7.50;99.90;;;;;;5047385;28;20123;-75
2023/12/31 05:20:32;;;;;;;571.83;522.63;;;7.40;99.90;;;;;;5032372;28;20036;-75
2023/12/31 05:23:00;;;;;;;664.40;607.45;;;7.40;99.90;;;;;;5045108;28;20029;-76
2023/12/31 05:25:29;;;;;;;537.72;496.98;;;7.50;99.90;;;;;;5041005;28;20044;-75
2023/12/31 05:27:58;;;;;;;577.58;531.47;;;7.40;99.90;;;;;;5043564;28;20041;-75
2023/12/31 05:30:26;;;;;;;476.58;440.17;;;7.50;99.90;;;;;;5042148;28;20096;-75
2023/12/31 05:32:52;;;;;;;593.58;543.70;;;7.50;99.90;;;;;;5025499;28;20552;-75
2023/12/31 05:35:19;;;;;;;500.17;461.30;;;7.50;99.90;;;;;;5023346;28;20127;-75
2023/12/31 05:37:48;;;;;;;552.70;509.03;;;7.50;99.90;;;;;;5043274;28;20037;-73
2023/12/31 05:40:16;;;;;;;631.38;577.20;;;7.50;99.90;;;;;;5046519;28;20284;-75
2023/12/31 05:42:45;;;;;;;606.97;556.83;;;7.50;99.90;;;;;;5046964;28;20045;-75
2023/12/31 05:45:16;;;;;;;680.23;621.60;;;7.50;99.90;;;;;;5025028;28;20280;-74
2023/12/31 05:47:43;;;;;;;580.70;534.70;;;7.50;99.90;;;;;;5030669;28;20276;-74
2023/12/31 05:50:10;;;;;;;621.92;571.00;;;7.50;99.90;;;;;;5047338;28;20836;-74
2023/12/31 05:52:37;;;;;;;586.27;540.60;;;7.60;99.90;;;;;;5050077;28;20101;-74
2023/12/31 05:55:04;;;;;;;752.97;684.47;;;7.60;99.90;;;;;;5030415;28;20279;-74
2023/12/31 05:57:30;;;;;;;680.22;622.20;;;7.60;99.90;;;;;;5047354;28;20290;-75
2023/12/31 06:00:05;;;;;;;670.10;611.13;;;7.70;99.90;;;;;;5043567;28;20044;-75
2023/12/31 06:02:32;;;;;;;681.40;624.13;;;7.70;99.90;;;;;;5046912;28;20043;-75
2023/12/31 06:04:59;;;;;;;614.08;564.95;;;7.70;99.90;;;;;;5045155;28;20040;-75
2023/12/31 06:07:25;;;;;;;716.65;646.28;;;7.70;99.90;;;;;;5051767;28;20489;-74
2023/12/31 06:09:53;;;;;;;646.87;592.53;;;7.70;99.90;;;;;;5046984;28;20040;-75
2023/12/31 06:12:21;;;;;;;639.93;584.00;;;7.70;99.90;;;;;;5040084;28;20356;-74
2023/12/31 06:14:51;;;;;;;748.53;680.58;;;7.70;99.90;;;;;;5046149;28;20295;-74
2023/12/31 06:17:19;;;;;;;780.60;703.88;;;7.70;99.90;;;;;;5046441;28;20041;-75
2023/12/31 06:19:50;;;;;;;630.57;577.23;;;7.70;99.90;;;;;;5023560;28;20044;-76
2023/12/31 06:22:17;;;;;;;625.97;574.67;;;7.70;99.90;;;;;;5048808;28;20291;-76
2023/12/31 06:24:49;;;;;;;623.45;572.03;;;7.70;99.90;;;;;;5043113;28;20029;-76
2023/12/31 06:27:17;;;;;;;684.42;622.70;;;7.70;99.90;;;;;;5045526;28;20049;-75
2023/12/31 06:29:46;;;;;;;595.40;546.35;;;7.70;99.90;;;;;;5051985;28;20123;-75
2023/12/31 06:32:15;;;;;;;764.90;689.90;;;7.70;99.90;;;;;;5054077;28;20160;-75
2023/12/31 06:34:45;;;;;;;658.03;601.77;;;7.70;99.90;;;;;;5046244;28;20341;-76
2023/12/31 06:37:14;;;;;;;655.35;599.88;;;7.70;99.90;;;;;;5035699;28;20295;-75
2023/12/31 06:39:46;;;;;;;754.03;683.60;;;7.70;99.90;;;;;;5042641;28;20049;-76
2023/12/31 06:42:14;;;;;;;727.15;660.75;;;7.80;99.90;;;;;;5043216;28;20292;-75
2023/12/31 06:44:43;;;;;;;779.20;688.97;;;7.80;99.90;;;;;;5019220;28;20397;-76
2023/12/31 06:47:10;;;;;;;722.70;657.30;;;7.80;99.90;;;;;;5032128;28;20041;-76
2023/12/31 06:49:42;;;;;;;727.20;660.80;;;7.80;99.90;;;;;;5047783;28;20039;-77
2023/12/31 06:52:08;;;;;;;740.72;673.08;;;7.80;99.90;;;;;;5045794;28;20289;-76
2023/12/31 06:54:37;;;;;;;700.43;636.63;;;7.90;99.90;;;;;;5045135;28;20036;-76
2023/12/31 06:57:09;;;;;;;614.20;562.00;;;7.90;99.90;;;;;;5046928;28;20286;-76
2023/12/31 06:59:35;;;;;;;885.03;771.42;;;7.90;99.90;;;;;;5043394;28;20302;-76
2023/12/31 07:02:04;;;;;;;704.03;639.93;;;8.00;99.80;;;;;;5046671;28;20056;-77
2023/12/31 07:04:31;;;;;;;738.95;666.67;;;8.00;99.60;;;;;;5047565;28;20315;-77
2023/12/31 07:07:00;;;;;;;760.70;691.00;;;8.00;99.40;;;;;;5045560;28;20037;-77
2023/12/31 07:09:32;;;;;;;658.17;600.07;;;8.00;99.30;;;;;;5048586;28;20291;-76
2023/12/31 07:11:59;;;;;;;660.87;604.80;;;8.00;99.40;;;;;;5031619;28;20286;-76
2023/12/31 07:14:29;;;;;;;746.78;676.13;;;8.00;99.70;;;;;;5047277;28;20382;-75
2023/12/31 07:16:55;;;;;;;709.97;646.67;;;8.00;99.80;;;;;;5036650;28;20078;-76
2023/12/31 07:19:21;;;;;;;787.40;711.97;;;8.00;99.80;;;;;;5042225;28;20328;-75
2023/12/31 07:21:48;;;;;;;630.07;577.57;;;8.00;99.90;;;;;;5050171;28;20293;-75
2023/12/31 07:24:14;;;;;;;647.47;592.33;;;8.00;99.90;;;;;;5046783;28;20045;-75
2023/12/31 07:26:43;;;;;;;806.43;727.23;;;7.90;99.90;;;;;;5046851;28;20128;-75
2023/12/31 07:29:14;;;;;;;776.03;699.20;;;7.90;99.90;;;;;;5053253;28;20716;-75
2023/12/31 07:31:42;;;;;;;729.33;665.07;;;8.00;99.90;;;;;;5048584;28;20077;-76
2023/12/31 07:34:15;;;;;;;743.17;675.80;;;8.00;99.90;;;;;;5047101;28;20276;-75
2023/12/31 07:36:42;;;;;;;705.83;643.17;;;8.00;99.90;;;;;;5045053;28;20056;-76
2023/12/31 07:39:09;;;;;;;663.13;607.53;;;8.00;99.90;;;;;;5043761;28;20287;-76
2023/12/31 07:41:37;;;;;;;743.07;672.70;;;8.00;99.90;;;;;;5028435;28;20286;-76
2023/12/31 07:44:04;;;;;;;764.40;692.10;;;8.00;99.90;;;;;;5049448;28;20763;-76
2023/12/31 07:46:32;;;;;;;687.97;629.40;;;8.00;99.90;;;;;;5026900;28;20047;-76
2023/12/31 07:49:01;;;;;;;646.47;591.23;;;8.00;99.90;;;;;;5032176;28;20127;-74
2023/12/31 07:51:28;;;;;;;774.95;699.75;;;8.00;99.90;;;;;;5031072;28;20292;-76
2023/12/31 07:53:55;;;;;;;811.90;732.93;;;8.00;99.90;;;;;;5032714;28;20102;-75
2023/12/31 07:56:22;;;;;;;788.93;710.77;;;8.00;99.90;;;;;;5036510;28;20295;-76
2023/12/31 07:58:50;;;;;;;692.63;629.60;;;7.90;99.90;;;;;;5047913;28;20271;-75
2023/12/31 08:01:19;;;;;;;680.70;620.97;;;7.90;99.90;;;;;;5035873;28;20791;-76
2023/12/31 08:03:48;;;;;;;642.93;587.80;;;7.90;99.90;;;;;;5031280;28;20315;-75
2023/12/31 08:06:16;;;;;;;700.75;638.58;;;7.90;99.90;;;;;;5036844;28;20790;-76
2023/12/31 08:08:42;;;;;;;589.33;542.95;;;7.90;99.90;;;;;;5046753;28;20726;-75
2023/12/31 08:11:09;;;;;;;751.97;681.43;;;7.90;99.90;;;;;;5047133;28;20029;-76
2023/12/31 08:13:35;;;;;;;699.90;638.43;;;7.90;99.90;;;;;;5036715;28;20041;-75
2023/12/31 08:16:03;;;;;;;641.53;587.17;;;7.90;99.90;;;;;;5047418;28;20283;-76
2023/12/31 08:18:31;;;;;;;719.67;654.50;;;7.80;99.90;;;;;;5049043;28;20068;-76
2023/12/31 08:21:00;;;;;;;631.63;578.58;;;7.90;99.90;;;;;;5048162;28;20051;-74
2023/12/31 08:23:29;;;;;;;633.17;579.40;;;7.90;99.90;;;;;;5049297;28;20147;-75
2023/12/31 08:25:58;;;;;;;640.80;587.33;;;7.80;99.90;;;;;;5047471;28;20276;-75
2023/12/31 08:28:25;;;;;;;690.70;629.38;;;7.80;99.90;;;;;;5048884;28;20298;-75
2023/12/31 08:30:55;;;;;;;633.10;579.77;;;7.90;99.90;;;;;;5047622;28;20048;-76
2023/12/31 08:33:25;;;;;;;646.83;593.03;;;7.90;99.90;;;;;;5053069;28;20279;-75
2023/12/31 08:35:51;;;;;;;757.97;685.87;;;7.90;99.90;;;;;;5033370;28;20851;-74
2023/12/31 08:38:17;;;;;;;666.40;607.07;;;7.90;99.90;;;;;;5032015;28;20366;-75
2023/12/31 08:40:45;;;;;;;693.90;632.83;;;7.90;99.90;;;;;;5030685;28;20379;-75
2023/12/31 08:43:16;;;;;;;604.20;555.20;;;8.00;99.90;;;;;;5032151;28;20513;-74
2023/12/31 08:45:44;;;;;;;575.27;530.00;;;8.00;99.90;;;;;;5048450;28;20330;-76
2023/12/31 08:48:10;;;;;;;645.47;591.13;;;8.00;99.90;;;;;;5047772;28;20293;-75
2023/12/31 08:50:38;;;;;;;610.13;558.57;;;8.10;99.90;;;;;;5048735;28;20745;-76
2023/12/31 08:53:05;;;;;;;697.73;633.83;;;8.10;99.90;;;;;;5047709;28;20287;-76
2023/12/31 08:55:32;;;;;;;632.63;579.87;;;8.10;99.90;;;;;;5031828;28;20280;-76
2023/12/31 08:57:59;;;;;;;571.93;527.27;;;8.10;99.90;;;;;;5046526;28;20394;-75
2023/12/31 09:00:26;;;;;;;673.00;616.57;;;8.10;99.90;;;;;;5030705;28;20293;-76
2023/12/31 09:02:56;;;;;;;603.90;555.03;;;8.10;99.90;;;;;;5029850;28;20668;-76
2023/12/31 09:05:24;;;;;;;573.73;529.00;;;8.10;99.90;;;;;;5030677;28;20294;-75
2023/12/31 09:07:51;;;;;;;664.20;609.33;;;8.10;99.90;;;;;;5026253;28;20287;-77
2023/12/31 09:10:17;;;;;;;656.60;599.30;;;8.10;99.90;;;;;;5042031;28;21602;-75
2023/12/31 09:12:43;;;;;;;598.00;548.43;;;8.10;99.90;;;;;;5045435;28;20290;-77
2023/12/31 09:15:11;;;;;;;639.53;588.23;;;8.10;99.90;;;;;;5029471;28;20048;-75
2023/12/31 09:17:37;;;;;;;737.77;663.47;;;8.10;99.90;;;;;;5041410;28;20348;-76
2023/12/31 09:20:08;;;;;;;577.37;530.83;;;8.10;99.90;;;;;;5050550;28;20341;-74
2023/12/31 09:22:34;;;;;;;619.73;567.40;;;8.10;99.90;;;;;;5031125;28;20147;-73
2023/12/31 09:25:00;;;;;;;558.97;514.33;;;8.10;99.90;;;;;;5045912;28;20284;-74
2023/12/31 09:27:27;;;;;;;628.90;573.53;;;8.10;99.90;;;;;;5028416;28;20284;-75
2023/12/31 09:29:53;;;;;;;648.03;594.83;;;8.10;99.90;;;;;;5041494;28;20319;-76
2023/12/31 09:32:19;;;;;;;527.40;485.90;;;8.10;99.90;;;;;;5043699;28;20303;-76
2023/12/31 09:34:45;;;;;;;732.10;663.97;;;8.10;99.90;;;;;;5044355;28;20283;-77
2023/12/31 09:37:11;;;;;;;704.37;641.83;;;8.10;99.90;;;;;;5044245;28;20621;-75
2023/12/31 09:39:37;;;;;;;635.55;582.90;;;8.00;99.90;;;;;;5041618;28;20079;-75
2023/12/31 09:42:12;;;;;;;609.73;559.73;;;8.10;99.90;;;;;;5024614;28;20037;-76
2023/12/31 09:44:42;;;;;;;642.08;588.25;;;8.10;99.90;;;;;;5045018;28;20287;-74
2023/12/31 09:47:10;;;;;;;524.77;484.13;;;8.10;99.90;;;;;;5044791;28;20037;-73
2023/12/31 09:49:37;;;;;;;511.67;472.33;;;8.10;99.90;;;;;;5043326;28;20284;-75
2023/12/31 09:52:04;;;;;;;621.55;566.85;;;8.10;99.90;;;;;;5039120;28;21065;-74
2023/12/31 09:54:34;;;;;;;644.93;590.90;;;8.20;99.90;;;;;;5031306;28;20083;-74
2023/12/31 09:57:01;;;;;;;654.20;597.03;;;8.20;99.90;;;;;;5038603;28;20283;-75
2023/12/31 09:59:30;;;;;;;625.73;572.57;;;8.20;99.90;;;;;;5055027;28;20341;-73
2023/12/31 10:02:00;;;;;;;660.13;606.13;;;8.30;99.90;;;;;;5041526;28;20457;-74
2023/12/31 10:04:26;;;;;;;684.73;623.47;;;8.40;99.90;;;;;;5025140;28;20283;-74
2023/12/31 10:06:53;;;;;;;732.40;667.23;;;8.40;99.90;;;;;;5026516;28;21304;-74
2023/12/31 10:09:23;;;;;;;782.07;707.17;;;8.40;99.90;;;;;;5023605;28;20282;-74
2023/12/31 10:11:49;;;;;;;599.37;550.93;;;8.50;99.90;;;;;;5024735;28;20315;-73
2023/12/31 10:14:16;;;;;;;717.00;654.23;;;8.50;99.90;;;;;;5030663;28;20298;-74
2023/12/31 10:16:46;;;;;;;920.90;781.43;;;8.50;99.90;;;;;;5025722;28;20271;-73
2023/12/31 10:19:13;;;;;;;711.43;645.83;;;8.50;99.90;;;;;;5027646;28;20315;-75
2023/12/31 10:21:44;;;;;;;683.87;624.87;;;8.50;99.90;;;;;;5042374;28;20366;-75
2023/12/31 10:24:10;;;;;;;794.87;717.33;;;8.60;99.90;;;;;;5040788;28;21653;-75
2023/12/31 10:26:37;;;;;;;670.53;611.43;;;8.60;99.90;;;;;;5025203;28;20372;-73
2023/12/31 10:29:06;;;;;;;802.13;719.93;;;8.60;99.90;;;;;;5042060;28;20295;-74
2023/12/31 10:31:32;;;;;;;658.40;599.43;;;8.60;99.90;;;;;;5021599;28;20353;-74
2023/12/31 10:34:17;;;;;;;693.87;622.23;;;8.60;99.90;;;;;;5023152;28;20345;-74
2023/12/31 10:36:47;;;;;;;834.28;750.35;;;8.60;99.90;;;;;;5041183;28;20284;-74
2023/12/31 10:39:27;;;;;;;596.40;547.60;;;8.60;99.90;;;;;;5045605;28;20478;-75
2023/12/31 10:41:58;;;;;;;605.87;554.47;;;8.60;99.90;;;;;;5046679;28;20322;-75
2023/12/31 10:44:27;;;;;;;748.27;679.77;;;8.50;99.90;;;;;;5043509;28;20769;-75
2023/12/31 10:47:00;;;;;;;702.60;642.57;;;8.50;99.90;;;;;;5039657;28;20284;-74
2023/12/31 10:49:29;;;;;;;748.63;679.13;;;8.40;99.90;;;;;;5044920;28;20754;-72
2023/12/31 10:51:56;;;;;;;568.43;522.43;;;8.20;99.90;;;;;;5042559;28;20286;-73
2023/12/31 10:54:45;;;;;;;613.27;560.80;;;8.00;99.90;;;;;;5049395;28;20298;-74
2023/12/31 10:57:13;;;;;;;613.73;562.93;;;7.80;99.90;;;;;;5025270;28;20344;-74
2023/12/31 10:59:42;;;;;;;591.63;544.30;;;7.60;99.90;;;;;;5046266;28;20375;-74
2023/12/31 11:02:18;;;;;;;625.23;574.87;;;7.40;99.90;;;;;;5024989;28;20429;-74
2023/12/31 11:04:47;;;;;;;623.87;569.47;;;7.30;99.90;;;;;;5018759;28;20303;-74
2023/12/31 11:07:16;;;;;;;527.80;485.57;;;7.20;99.90;;;;;;5031139;28;20818;-75
2023/12/31 11:09:46;;;;;;;687.53;625.10;;;7.10;99.90;;;;;;5040775;28;20298;-74
2023/12/31 11:12:17;;;;;;;599.60;546.17;;;7.10;99.90;;;;;;5026886;28;20287;-75
2023/12/31 11:15:15;;;;;;;475.20;440.93;;;7.00;99.90;;;;;;5040359;28;20298;-75
2023/12/31 11:17:53;;;;;;;639.65;582.55;;;7.00;99.90;;;;;;5054240;28;20314;-75
2023/12/31 11:20:28;;;;;;;567.60;521.15;;;6.90;99.90;;;;;;5047914;28;20041;-75
2023/12/31 11:23:11;;;;;;;703.60;638.58;;;6.90;99.90;;;;;;5047508;28;20062;-75
2023/12/31 11:25:40;;;;;;;487.20;450.90;;;6.90;99.90;;;;;;5046403;28;20044;-75
2023/12/31 11:28:06;;;;;;;552.58;509.85;;;6.90;99.90;;;;;;5029429;28;20041;-76
2023/12/31 11:30:57;;;;;;;465.55;431.98;;;6.90;99.90;;;;;;5046688;28;20473;-75
2023/12/31 11:33:31;;;;;;;465.15;431.42;;;6.90;99.90;;;;;;5030919;28;20041;-76
2023/12/31 11:36:02;;;;;;;528.70;488.30;;;6.90;99.90;;;;;;5044630;28;20045;-75
2023/12/31 11:38:50;;;;;;;483.38;446.58;;;7.00;99.90;;;;;;5029105;28;20103;-75
2023/12/31 11:41:22;;;;;;;573.85;527.55;;;7.10;99.90;;;;;;5046751;28;20390;-76
2023/12/31 11:43:50;;;;;;;532.53;491.48;;;7.20;99.90;;;;;;5021356;28;20055;-75
2023/12/31 11:46:37;;;;;;;519.47;479.23;;;7.30;99.90;;;;;;5044882;28;20124;-75
2023/12/31 11:49:04;;;;;;;655.25;598.75;;;7.40;99.90;;;;;;5021357;28;20045;-76
2023/12/31 11:51:51;;;;;;;487.25;450.60;;;7.60;99.90;;;;;;5030159;28;20058;-76
2023/12/31 11:54:22;;;;;;;607.97;558.10;;;7.70;99.90;;;;;;5033064;28;20040;-76
2023/12/31 11:56:51;;;;;;;547.40;503.15;;;7.70;99.90;;;;;;5045846;28;20102;-76
2023/12/31 11:59:18;;;;;;;626.47;574.87;;;7.80;99.90;;;;;;5043450;28;20058;-75
2023/12/31 12:01:48;;;;;;;530.47;491.13;;;7.90;99.90;;;;;;5045538;28;20288;-76
2023/12/31 12:04:14;;;;;;;519.40;479.97;;;7.90;99.90;;;;;;5045626;28;20637;-76
2023/12/31 12:06:40;;;;;;;791.77;714.13;;;7.90;99.90;;;;;;5031417;28;20283;-75
2023/12/31 12:09:06;;;;;;;654.43;600.67;;;7.90;99.90;;;;;;5044433;28;20060;-76
2023/12/31 12:11:33;;;;;;;586.47;538.03;;;7.90;99.90;;;;;;5031119;28;20284;-75
2023/12/31 12:14:02;;;;;;;590.60;544.53;;;7.90;99.90;;;;;;5047319;28;20732;-76
2023/12/31 12:16:28;;;;;;;572.30;524.57;;;7.80;99.90;;;;;;5046001;28;20290;-75
2023/12/31 12:19:04;;;;;;;625.00;570.63;;;7.80;99.90;;;;;;5033337;28;20340;-76
2023/12/31 12:21:30;;;;;;;485.80;449.67;;;7.80;99.90;;;;;;5042487;28;20291;-76
2023/12/31 12:23:57;;;;;;;665.22;606.65;;;7.80;99.90;;;;;;5046971;28;20299;-75
2023/12/31 12:26:23;;;;;;;637.77;586.70;;;7.80;99.90;;;;;;5044842;28;20736;-75